Time;durP1;ratioP1;P1;durP2;ratioP2;P2;SDS_P1;SDS_P2;PMS_P1;PMS_P2;Temp;Humidity;BMP_temperature;BMP_pressure;BME280_temperature;BME280_humidity;BME280_pressure;Samples;Min_cycle;Max_cycle;Signal;HPM_P1;HPM_P2
2021/06/12 00:00:12;;;;;;;;;;;26.90;99.90;;;;;;1831896;77;20158;-85
2021/06/12 00:02:42;;;;;;;;;;;26.90;99.90;;;;;;1842467;77;20170;-87
2021/06/12 00:05:13;;;;;;;;;;;26.90;99.90;;;;;;1857276;77;20158;-86
2021/06/12 00:07:43;;;;;;;;;;;26.90;99.90;;;;;;1839491;78;20166;-85
2021/06/12 00:10:14;;;;;;;;;;;26.90;99.90;;;;;;1855887;77;20165;-86
2021/06/12 00:12:44;;;;;;;;;;;26.90;99.90;;;;;;1859794;77;20478;-85
2021/06/12 00:15:14;;;;;;;;;;;26.90;99.90;;;;;;1847044;77;20165;-86
2021/06/12 00:17:44;;;;;;;;;;;26.90;99.90;;;;;;1856479;77;20163;-85
2021/06/12 00:20:15;;;;;;;;;;;27.00;99.90;;;;;;1826470;77;20249;-86
2021/06/12 00:22:46;;;;;;;;;;;26.90;99.90;;;;;;1850139;77;20186;-86
2021/06/12 00:25:17;;;;;;;;;;;27.00;99.90;;;;;;1863368;74;20505;-87
2021/06/12 00:27:47;;;;;;;;;;;26.90;99.90;;;;;;1894977;75;20496;-86
2021/06/12 00:30:17;;;;;;;;;;;27.00;99.80;;;;;;1901178;74;20473;-86
2021/06/12 00:32:50;;;;;;;;;;;27.00;99.90;;;;;;1898165;75;20449;-86
2021/06/12 00:35:26;;;;;;;;;;;26.90;99.90;;;;;;1898755;74;20171;-91
2021/06/12 00:38:15;;;;;;;;;;;27.00;99.90;;;;;;1862357;75;20160;-89
2021/06/12 00:40:48;;;;;;;;;;;27.00;99.90;;;;;;1833731;77;20201;-89
2021/06/12 00:43:18;;;;;;;;;;;27.00;99.90;;;;;;1864196;75;20221;-89
2021/06/12 00:46:02;;;;;;;;;;;27.00;99.90;;;;;;1856422;76;20189;-89
2021/06/12 00:48:32;;;;;;;;;;;27.00;99.90;;;;;;1858575;75;20476;-88
2021/06/12 00:51:02;;;;;;;;;;;27.00;99.90;;;;;;1865148;75;20132;-89
2021/06/12 00:53:41;;;;;;;;;;;27.00;99.90;;;;;;1856892;76;20239;-89
2021/06/12 00:56:07;;;;;;;;;;;27.00;99.90;;;;;;1827196;77;20508;-89
2021/06/12 00:58:41;;;;;;;;;;;27.00;99.90;;;;;;1861468;76;20210;-89
2021/06/12 01:01:07;;;;;;;;;;;27.00;99.90;;;;;;1901418;74;20450;-86
2021/06/12 01:03:39;;;;;;;;;;;27.10;99.90;;;;;;1905183;74;20186;-82
2021/06/12 01:06:09;;;;;;;;;;;27.00;99.90;;;;;;1900667;74;20179;-80
2021/06/12 01:08:42;;;;;;;;;;;27.00;99.90;;;;;;1889573;75;20202;-84
2021/06/12 01:11:11;;;;;;;;;;;27.00;99.90;;;;;;1899243;75;20175;-88
2021/06/12 01:13:45;;;;;;;;;;;27.00;99.90;;;;;;1902298;74;20525;-87
2021/06/12 01:16:16;;;;;;;;;;;27.00;99.90;;;;;;1900609;75;20249;-88
2021/06/12 01:18:46;;;;;;;;;;;27.00;99.90;;;;;;1899921;74;20250;-89
2021/06/12 01:21:24;;;;;;;;;;;27.10;99.90;;;;;;1901094;75;20182;-89
2021/06/12 01:24:03;;;;;;;;;;;27.00;99.90;;;;;;1900685;75;20213;-89
2021/06/12 01:26:33;;;;;;;;;;;27.00;99.90;;;;;;1898032;75;20210;-90
2021/06/12 01:29:33;;;;;;;;;;;27.00;99.90;;;;;;1896733;75;20163;-90
2021/06/12 01:31:44;;;;;;;;;;;27.00;99.90;;;;;;1891135;75;20209;-89
2021/06/12 01:34:18;;;;;;;;;;;27.00;99.90;;;;;;1890426;74;20462;-90
2021/06/12 01:36:47;;;;;;;;;;;27.00;99.90;;;;;;1894576;75;20215;-88
2021/06/12 01:39:29;;;;;;;;;;;27.10;99.90;;;;;;1896271;74;20142;-87
2021/06/12 01:42:01;;;;;;;;;;;27.00;99.90;;;;;;1860133;75;20234;-89
2021/06/12 01:44:32;;;;;;;;;;;27.00;99.80;;;;;;1894369;74;20198;-88
2021/06/12 01:47:05;;;;;;;;;;;27.00;99.80;;;;;;1895122;74;20582;-88
2021/06/12 01:49:33;;;;;;;;;;;27.00;99.80;;;;;;1894770;75;20236;-89
2021/06/12 01:52:09;;;;;;;;;;;26.90;99.50;;;;;;1898905;75;20161;-89
2021/06/12 01:54:39;;;;;;;;;;;26.90;99.70;;;;;;1811605;78;20211;-90
2021/06/12 01:57:09;;;;;;;;;;;26.90;99.60;;;;;;1813129;79;20125;-88
2021/06/12 01:59:41;;;;;;;;;;;27.00;99.90;;;;;;1812714;78;20448;-90
2021/06/12 02:02:11;;;;;;;;;;;26.90;99.90;;;;;;1805455;78;20212;-89
2021/06/12 02:04:42;;;;;;;;;;;26.90;99.90;;;;;;1794327;79;20138;-89
2021/06/12 02:07:13;;;;;;;;;;;26.90;99.90;;;;;;1807494;79;20221;-89
2021/06/12 02:09:47;;;;;;;;;;;26.90;99.90;;;;;;1814698;78;20180;-88
2021/06/12 02:12:18;;;;;;;;;;;26.90;99.90;;;;;;1808253;78;20224;-89
2021/06/12 02:14:48;;;;;;;;;;;26.90;99.90;;;;;;1810789;79;20164;-88
2021/06/12 02:17:19;;;;;;;;;;;26.90;99.90;;;;;;1812154;78;20289;-87
2021/06/12 02:19:49;;;;;;;;;;;27.00;99.90;;;;;;1810099;79;20207;-88
2021/06/12 02:22:19;;;;;;;;;;;27.00;99.90;;;;;;1812330;79;20232;-88
2021/06/12 02:24:50;;;;;;;;;;;27.00;99.90;;;;;;1809561;79;20212;-87
2021/06/12 02:27:21;;;;;;;;;;;27.00;99.90;;;;;;1810293;77;20191;-88
2021/06/12 02:29:52;;;;;;;;;;;27.00;99.90;;;;;;1804709;78;20247;-87
2021/06/12 02:32:22;;;;;;;;;;;27.00;99.90;;;;;;1816785;79;20254;-88
2021/06/12 02:34:52;;;;;;;;;;;26.90;99.90;;;;;;1805388;78;20211;-88
2021/06/12 02:37:22;;;;;;;;;;;26.90;99.90;;;;;;1805022;79;20164;-87
2021/06/12 02:39:52;;;;;;;;;;;26.80;99.90;;;;;;1812224;79;20251;-88
2021/06/12 02:42:21;;;;;;;;;;;26.80;99.90;;;;;;1806672;79;20561;-87
2021/06/12 02:44:54;;;;;;;;;;;26.70;99.90;;;;;;1815174;78;20184;-87
2021/06/12 02:47:27;;;;;;;;;;;26.70;99.90;;;;;;1815017;78;20164;-89
2021/06/12 02:50:14;;;;;;;;;;;26.70;99.90;;;;;;1812783;77;20246;-89
2021/06/12 02:52:49;;;;;;;;;;;26.70;99.90;;;;;;1814941;77;20258;-89
2021/06/12 02:55:18;;;;;;;;;;;26.60;99.90;;;;;;1795832;78;20239;-89
2021/06/12 02:57:49;;;;;;;;;;;26.60;99.90;;;;;;1854312;76;20135;-88
2021/06/12 03:00:21;;;;;;;;;;;26.60;99.90;;;;;;1849580;76;20210;-88
2021/06/12 03:02:52;;;;;;;;;;;26.60;99.90;;;;;;1815561;77;20217;-88
2021/06/12 03:05:23;;;;;;;;;;;26.70;99.90;;;;;;1806358;78;20212;-88
2021/06/12 03:07:54;;;;;;;;;;;26.70;99.90;;;;;;1853438;76;20698;-88
2021/06/12 03:10:26;;;;;;;;;;;26.70;99.90;;;;;;1851309;76;20544;-88
2021/06/12 03:12:56;;;;;;;;;;;26.70;99.90;;;;;;1857097;76;20251;-89
2021/06/12 03:15:27;;;;;;;;;;;26.80;99.90;;;;;;1851384;76;20578;-86
2021/06/12 03:17:57;;;;;;;;;;;26.80;99.90;;;;;;1864029;76;20251;-86
2021/06/12 03:20:32;;;;;;;;;;;26.80;99.90;;;;;;1862501;76;20125;-87
2021/06/12 03:23:03;;;;;;;;;;;26.80;99.90;;;;;;1860048;76;20171;-86
2021/06/12 03:25:33;;;;;;;;;;;26.80;99.90;;;;;;1858855;76;20171;-87
2021/06/12 03:28:10;;;;;;;;;;;26.80;99.90;;;;;;1844605;77;20476;-88
2021/06/12 03:30:40;;;;;;;;;;;26.80;99.90;;;;;;1841013;77;20203;-88
2021/06/12 03:33:13;;;;;;;;;;;26.80;99.90;;;;;;1850930;77;20167;-88
2021/06/12 03:35:43;;;;;;;;;;;26.80;99.90;;;;;;1812569;79;20259;-88
2021/06/12 03:38:14;;;;;;;;;;;26.80;99.90;;;;;;1839501;76;20203;-87
2021/06/12 03:40:43;;;;;;;;;;;26.80;99.90;;;;;;1839691;77;20184;-87
2021/06/12 03:43:14;;;;;;;;;;;26.80;99.90;;;;;;1842598;77;20262;-89
2021/06/12 03:45:44;;;;;;;;;;;26.80;99.90;;;;;;1840580;77;20145;-89
2021/06/12 03:48:15;;;;;;;;;;;26.80;99.90;;;;;;1835039;78;20145;-87
2021/06/12 03:50:45;;;;;;;;;;;26.80;99.90;;;;;;1836880;77;20131;-89
2021/06/12 03:53:15;;;;;;;;;;;26.80;99.90;;;;;;1845016;77;20123;-86
2021/06/12 03:55:45;;;;;;;;;;;26.80;99.90;;;;;;1814109;77;20240;-87
2021/06/12 03:58:14;;;;;;;;;;;26.70;99.90;;;;;;1840042;77;20206;-87
2021/06/12 04:00:45;;;;;;;;;;;26.70;99.90;;;;;;1836829;77;20197;-87
2021/06/12 04:03:15;;;;;;;;;;;26.60;99.90;;;;;;1839361;77;20555;-87
2021/06/12 04:05:46;;;;;;;;;;;26.60;99.90;;;;;;1846972;77;20241;-87
2021/06/12 04:08:16;;;;;;;;;;;26.60;99.90;;;;;;1842867;77;20195;-87
2021/06/12 04:10:47;;;;;;;;;;;26.60;99.90;;;;;;1843688;77;20186;-87
2021/06/12 04:13:16;;;;;;;;;;;26.70;99.90;;;;;;1837066;76;20240;-86
2021/06/12 04:15:46;;;;;;;;;;;26.70;99.90;;;;;;1836057;77;20201;-87
2021/06/12 04:18:16;;;;;;;;;;;26.70;99.90;;;;;;1848571;77;20173;-87
2021/06/12 04:20:46;;;;;;;;;;;26.60;99.90;;;;;;1839577;77;20226;-87
2021/06/12 04:23:15;;;;;;;;;;;26.60;99.90;;;;;;1842044;77;20188;-87
2021/06/12 04:25:46;;;;;;;;;;;26.60;99.90;;;;;;1828674;77;20205;-88
2021/06/12 04:28:17;;;;;;;;;;;26.60;99.90;;;;;;1837003;77;20157;-87
2021/06/12 04:30:47;;;;;;;;;;;26.60;99.90;;;;;;1833266;77;20132;-87
2021/06/12 04:33:17;;;;;;;;;;;26.60;99.90;;;;;;1826270;77;20182;-87
2021/06/12 04:35:47;;;;;;;;;;;26.60;99.90;;;;;;1821092;77;20147;-87
2021/06/12 04:38:16;;;;;;;;;;;26.60;99.90;;;;;;1805771;77;20262;-87
2021/06/12 04:40:46;;;;;;;;;;;26.70;99.90;;;;;;1803185;77;20658;-88
2021/06/12 04:43:16;;;;;;;;;;;26.70;99.90;;;;;;1804295;77;20216;-88
2021/06/12 04:45:46;;;;;;;;;;;26.60;99.90;;;;;;1804279;78;20236;-89
2021/06/12 04:48:15;;;;;;;;;;;26.60;99.90;;;;;;1815214;77;20213;-88
2021/06/12 04:50:45;;;;;;;;;;;26.50;99.90;;;;;;1828552;77;20183;-88
2021/06/12 04:53:16;;;;;;;;;;;26.50;99.90;;;;;;1819781;78;20125;-87
2021/06/12 04:55:46;;;;;;;;;;;26.50;99.90;;;;;;1805029;78;20575;-88
2021/06/12 04:58:17;;;;;;;;;;;26.40;99.90;;;;;;1807729;78;20184;-87
2021/06/12 05:00:48;;;;;;;;;;;26.40;99.90;;;;;;1834274;77;20168;-88
2021/06/12 05:03:21;;;;;;;;;;;26.40;99.90;;;;;;1830927;77;20125;-87
2021/06/12 05:05:49;;;;;;;;;;;26.40;99.90;;;;;;1804009;77;20133;-87
2021/06/12 05:08:19;;;;;;;;;;;26.40;99.90;;;;;;1804694;78;20228;-88
2021/06/12 05:10:49;;;;;;;;;;;26.40;99.90;;;;;;1824655;77;20123;-87
2021/06/12 05:13:19;;;;;;;;;;;26.50;99.90;;;;;;1854325;77;20214;-87
2021/06/12 05:15:48;;;;;;;;;;;26.50;99.90;;;;;;1854276;77;20502;-88
2021/06/12 05:18:21;;;;;;;;;;;26.50;99.90;;;;;;1855422;77;20199;-87
2021/06/12 05:20:49;;;;;;;;;;;26.50;99.90;;;;;;1842621;77;20192;-87
2021/06/12 05:23:19;;;;;;;;;;;26.50;99.90;;;;;;1825497;78;20163;-87
2021/06/12 05:25:49;;;;;;;;;;;26.50;99.90;;;;;;1793331;78;20288;-86
2021/06/12 05:28:19;;;;;;;;;;;26.50;99.90;;;;;;1814222;77;20173;-86
2021/06/12 05:30:49;;;;;;;;;;;26.50;99.90;;;;;;1844820;76;20207;-87
2021/06/12 05:33:18;;;;;;;;;;;26.50;99.90;;;;;;1841367;76;20210;-87
2021/06/12 05:35:48;;;;;;;;;;;26.60;99.90;;;;;;1850154;76;20121;-86
2021/06/12 05:38:19;;;;;;;;;;;26.60;99.90;;;;;;1845548;76;20956;-82
2021/06/12 05:40:48;;;;;;;;;;;26.70;99.90;;;;;;1849659;78;20231;-84
2021/06/12 05:43:19;;;;;;;;;;;26.70;99.90;;;;;;1853058;76;20187;-83
2021/06/12 05:45:48;;;;;;;;;;;26.70;99.90;;;;;;1851490;76;20184;-83
2021/06/12 05:48:18;;;;;;;;;;;26.80;99.90;;;;;;1811303;77;20594;-83
2021/06/12 05:50:48;;;;;;;;;;;26.80;99.90;;;;;;1803488;78;20672;-83
2021/06/12 05:53:21;;;;;;;;;;;26.80;99.90;;;;;;1806189;78;20212;-84
2021/06/12 05:55:54;;;;;;;;;;;26.80;99.90;;;;;;1824578;78;20246;-83
2021/06/12 05:58:26;;;;;;;;;;;26.80;99.90;;;;;;1841259;77;20127;-83
2021/06/12 06:00:56;;;;;;;;;;;26.80;99.90;;;;;;1821346;78;20433;-83
2021/06/12 06:03:26;;;;;;;;;;;26.80;99.90;;;;;;1840505;78;20235;-83
2021/06/12 06:05:58;;;;;;;;;;;26.90;99.90;;;;;;1846814;77;20133;-84
2021/06/12 06:08:27;;;;;;;;;;;26.90;99.90;;;;;;1817284;78;20186;-84
2021/06/12 06:10:58;;;;;;;;;;;26.90;99.90;;;;;;1819469;78;20140;-84
2021/06/12 06:13:28;;;;;;;;;;;26.90;99.90;;;;;;1860679;76;20414;-83
2021/06/12 06:16:00;;;;;;;;;;;26.90;99.90;;;;;;1868364;75;20247;-84
2021/06/12 06:18:30;;;;;;;;;;;26.90;99.90;;;;;;1856935;76;20217;-83
2021/06/12 06:21:00;;;;;;;;;;;26.90;99.90;;;;;;1858236;76;20223;-83
2021/06/12 06:23:30;;;;;;;;;;;26.90;99.90;;;;;;1856045;76;20163;-84
2021/06/12 06:26:00;;;;;;;;;;;26.90;99.90;;;;;;1872184;76;20442;-83
2021/06/12 06:28:30;;;;;;;;;;;26.90;99.90;;;;;;1836618;76;20530;-82
2021/06/12 06:31:02;;;;;;;;;;;26.90;99.90;;;;;;1814542;79;20169;-83
2021/06/12 06:33:34;;;;;;;;;;;27.00;99.90;;;;;;1785780;79;20170;-85
2021/06/12 06:36:05;;;;;;;;;;;27.00;99.90;;;;;;1837760;77;20232;-84
2021/06/12 06:38:35;;;;;;;;;;;27.00;99.90;;;;;;1798517;78;20262;-84
2021/06/12 06:41:04;;;;;;;;;;;27.00;99.90;;;;;;1806140;78;20612;-85
2021/06/12 06:43:34;;;;;;;;;;;27.00;99.90;;;;;;1835256;78;20136;-84
2021/06/12 06:46:04;;;;;;;;;;;27.00;99.90;;;;;;1804456;79;20189;-84
2021/06/12 06:48:35;;;;;;;;;;;27.00;99.90;;;;;;1799618;79;20138;-84
2021/06/12 06:51:04;;;;;;;;;;;27.00;99.90;;;;;;1804287;79;20161;-84
2021/06/12 06:53:34;;;;;;;;;;;26.90;99.90;;;;;;1836186;78;20123;-83
2021/06/12 06:56:04;;;;;;;;;;;26.90;99.90;;;;;;1799460;80;20137;-83
2021/06/12 06:58:34;;;;;;;;;;;26.90;99.90;;;;;;1802340;78;20225;-83
2021/06/12 07:01:05;;;;;;;;;;;26.90;99.90;;;;;;1822611;78;20642;-83
2021/06/12 07:03:35;;;;;;;;;;;26.90;99.90;;;;;;1834398;76;20162;-84
2021/06/12 07:06:05;;;;;;;;;;;26.90;99.90;;;;;;1767322;80;20404;-81
2021/06/12 07:08:34;;;;;;;;;;;26.90;99.90;;;;;;1801468;79;20445;-82
2021/06/12 07:11:04;;;;;;;;;;;26.80;99.90;;;;;;1800855;79;20317;-82
2021/06/12 07:13:34;;;;;;;;;;;26.70;99.90;;;;;;1813164;78;20223;-83
2021/06/12 07:16:05;;;;;;;;;;;26.70;99.90;;;;;;1822080;78;20178;-82
2021/06/12 07:18:36;;;;;;;;;;;26.60;99.90;;;;;;1822981;78;20206;-82
2021/06/12 07:21:06;;;;;;;;;;;26.50;99.90;;;;;;1825236;78;20138;-82
2021/06/12 07:23:36;;;;;;;;;;;26.50;99.90;;;;;;1809168;78;20208;-81
2021/06/12 07:26:06;;;;;;;;;;;26.50;99.90;;;;;;1823876;78;20171;-81
2021/06/12 07:28:38;;;;;;;;;;;26.60;99.90;;;;;;1827385;78;20217;-81
2021/06/12 07:31:09;;;;;;;;;;;26.60;99.90;;;;;;1827028;78;20194;-82
2021/06/12 07:33:39;;;;;;;;;;;26.60;99.90;;;;;;1830792;78;20187;-81
2021/06/12 07:36:09;;;;;;;;;;;26.50;99.90;;;;;;1823896;78;20228;-81
2021/06/12 07:38:38;;;;;;;;;;;26.50;99.90;;;;;;1791554;80;20214;-82
2021/06/12 07:41:08;;;;;;;;;;;26.50;99.90;;;;;;1768985;80;20201;-82
2021/06/12 07:43:38;;;;;;;;;;;26.60;99.90;;;;;;1803810;79;20230;-82
2021/06/12 07:46:07;;;;;;;;;;;26.60;99.90;;;;;;1802697;78;20583;-82
2021/06/12 07:48:37;;;;;;;;;;;26.70;99.90;;;;;;1796480;79;20189;-82
2021/06/12 07:51:09;;;;;;;;;;;26.70;99.90;;;;;;1797102;79;20230;-83
2021/06/12 07:53:39;;;;;;;;;;;26.70;99.90;;;;;;1809302;79;20135;-83
2021/06/12 07:56:08;;;;;;;;;;;26.60;99.90;;;;;;1804767;79;20271;-83
2021/06/12 07:58:38;;;;;;;;;;;26.50;99.90;;;;;;1808166;79;20399;-84
2021/06/12 08:01:08;;;;;;;;;;;26.50;99.90;;;;;;1798759;79;20211;-83
2021/06/12 08:03:38;;;;;;;;;;;26.50;99.90;;;;;;1805254;79;20269;-83
2021/06/12 08:06:13;;;;;;;;;;;26.50;99.90;;;;;;1802827;79;20174;-83
2021/06/12 08:08:46;;;;;;;;;;;26.60;99.90;;;;;;1793053;79;20135;-84
2021/06/12 08:11:15;;;;;;;;;;;26.60;99.90;;;;;;1798268;79;20231;-83
2021/06/12 08:13:46;;;;;;;;;;;26.60;99.90;;;;;;1797802;79;20250;-83
2021/06/12 08:16:19;;;;;;;;;;;26.50;99.90;;;;;;1800063;79;20234;-82
2021/06/12 08:18:49;;;;;;;;;;;26.50;99.90;;;;;;1804643;79;20701;-83
2021/06/12 08:21:18;;;;;;;;;;;26.60;99.90;;;;;;1799284;79;20406;-83
2021/06/12 08:23:52;;;;;;;;;;;26.60;99.90;;;;;;1804821;79;20198;-83
2021/06/12 08:26:24;;;;;;;;;;;26.60;99.90;;;;;;1797038;79;20198;-83
2021/06/12 08:28:54;;;;;;;;;;;26.60;99.90;;;;;;1797520;79;20188;-83
2021/06/12 08:31:24;;;;;;;;;;;26.50;99.90;;;;;;1803942;79;20173;-83
2021/06/12 08:33:54;;;;;;;;;;;26.50;99.90;;;;;;1819772;79;20288;-83
2021/06/12 08:36:24;;;;;;;;;;;26.60;99.90;;;;;;1823941;77;20209;-83
2021/06/12 08:38:53;;;;;;;;;;;26.60;99.90;;;;;;1823814;79;20489;-82
2021/06/12 08:41:23;;;;;;;;;;;26.70;99.90;;;;;;1825053;78;20255;-82
2021/06/12 08:43:54;;;;;;;;;;;26.70;99.90;;;;;;1778388;78;20254;-82
2021/06/12 08:46:29;;;;;;;;;;;26.70;99.70;;;;;;1784222;79;20224;-81
2021/06/12 08:49:04;;;;;;;;;;;26.80;99.70;;;;;;1783116;79;20208;-83
2021/06/12 08:51:34;;;;;;;;;;;26.70;99.70;;;;;;1798243;80;20512;-82
2021/06/12 08:54:04;;;;;;;;;;;26.80;99.60;;;;;;1811676;78;20210;-82
2021/06/12 08:56:34;;;;;;;;;;;26.80;99.30;;;;;;1812358;78;20249;-81
2021/06/12 08:59:04;;;;;;;;;;;26.80;99.30;;;;;;1771525;80;20202;-83
2021/06/12 09:01:33;;;;;;;;;;;26.80;99.30;;;;;;1823841;78;20477;-83
2021/06/12 09:04:03;;;;;;;;;;;26.80;98.90;;;;;;1791385;79;20197;-83
2021/06/12 09:06:33;;;;;;;;;;;26.80;98.60;;;;;;1812647;79;20202;-83
2021/06/12 09:09:04;;;;;;;;;;;26.80;98.70;;;;;;1736904;80;20262;-83
2021/06/12 09:11:35;;;;;;;;;;;26.70;99.10;;;;;;1791004;79;20208;-82
2021/06/12 09:14:04;;;;;;;;;;;26.70;99.30;;;;;;1866218;76;20408;-83
2021/06/12 09:16:35;;;;;;;;;;;26.80;99.00;;;;;;1863576;76;20255;-82
2021/06/12 09:19:07;;;;;;;;;;;26.80;98.80;;;;;;1835333;77;20248;-83
2021/06/12 09:21:38;;;;;;;;;;;26.80;98.80;;;;;;1835004;78;20186;-82
2021/06/12 09:24:09;;;;;;;;;;;26.80;99.20;;;;;;1863843;77;20208;-83
2021/06/12 09:26:40;;;;;;;;;;;26.80;98.80;;;;;;1865370;77;20207;-83
2021/06/12 09:29:10;;;;;;;;;;;26.80;98.90;;;;;;1865774;77;20218;-83
2021/06/12 09:31:41;;;;;;;;;;;26.80;98.80;;;;;;1866686;77;20200;-84
2021/06/12 09:34:12;;;;;;;;;;;26.80;98.90;;;;;;1865254;76;20180;-82
2021/06/12 09:36:41;;;;;;;;;;;26.80;98.50;;;;;;1869294;77;20181;-82
2021/06/12 09:39:12;;;;;;;;;;;26.70;98.40;;;;;;1868802;77;20246;-82
2021/06/12 09:41:44;;;;;;;;;;;26.70;98.50;;;;;;1865481;77;20222;-82
2021/06/12 09:44:16;;;;;;;;;;;26.70;98.50;;;;;;1865481;77;20215;-83
2021/06/12 09:46:45;;;;;;;;;;;26.70;98.50;;;;;;1865574;77;20121;-82
2021/06/12 09:49:35;;;;;;;;;;;26.80;98.80;;;;;;1865679;77;20133;-82
2021/06/12 09:52:06;;;;;;;;;;;26.80;98.20;;;;;;1860831;76;20132;-83
2021/06/12 09:54:37;;;;;;;;;;;26.70;97.80;;;;;;1872960;77;20231;-82
2021/06/12 09:57:08;;;;;;;;;;;26.80;98.00;;;;;;1872715;76;20180;-82
2021/06/12 09:59:39;;;;;;;;;;;26.70;98.00;;;;;;1855683;76;20221;-83
2021/06/12 10:02:09;;;;;;;;;;;26.70;97.40;;;;;;1845733;76;20244;-83
2021/06/12 10:04:40;;;;;;;;;;;26.70;97.40;;;;;;1854458;76;20249;-83
2021/06/12 10:07:10;;;;;;;;;;;26.80;97.90;;;;;;1846767;76;20221;-82
2021/06/12 10:09:39;;;;;;;;;;;26.70;97.50;;;;;;1842696;78;20143;-83
2021/06/12 10:12:10;;;;;;;;;;;26.70;97.70;;;;;;1839519;77;20182;-82
2021/06/12 10:14:40;;;;;;;;;;;26.80;98.00;;;;;;1837769;78;20509;-83
2021/06/12 10:17:10;;;;;;;;;;;26.80;98.50;;;;;;1835806;77;20170;-82
2021/06/12 10:19:44;;;;;;;;;;;26.80;98.70;;;;;;1828032;78;20674;-82
2021/06/12 10:22:14;;;;;;;;;;;26.80;98.50;;;;;;1863631;76;20133;-83
2021/06/12 10:24:44;;;;;;;;;;;26.80;98.60;;;;;;1845633;76;20564;-82
2021/06/12 10:27:15;;;;;;;;;;;26.70;98.40;;;;;;1856590;76;20200;-82
2021/06/12 10:29:45;;;;;;;;;;;26.70;98.30;;;;;;1852082;77;20215;-84
2021/06/12 10:32:16;;;;;;;;;;;26.60;98.40;;;;;;1845928;77;20131;-82
2021/06/12 10:34:46;;;;;;;;;;;26.70;98.40;;;;;;1831903;77;20171;-83
2021/06/12 10:37:17;;;;;;;;;;;26.70;98.20;;;;;;1830771;78;20482;-83
2021/06/12 10:39:47;;;;;;;;;;;26.70;98.20;;;;;;1834754;77;20190;-83
2021/06/12 10:42:19;;;;;;;;;;;26.70;98.10;;;;;;1843268;78;20131;-83
2021/06/12 10:44:50;;;;;;;;;;;26.60;97.70;;;;;;1842987;77;20190;-82
2021/06/12 10:47:21;;;;;;;;;;;26.60;97.90;;;;;;1837631;78;20202;-83
2021/06/12 10:49:51;;;;;;;;;;;26.60;97.80;;;;;;1835309;76;20178;-83
2021/06/12 10:52:22;;;;;;;;;;;26.60;97.80;;;;;;1848737;77;20212;-83
2021/06/12 10:54:51;;;;;;;;;;;26.60;97.90;;;;;;1844447;77;20126;-83
2021/06/12 10:57:21;;;;;;;;;;;26.60;97.90;;;;;;1841415;76;20534;-83
2021/06/12 10:59:51;;;;;;;;;;;26.60;97.90;;;;;;1854360;77;20495;-82
2021/06/12 11:02:28;;;;;;;;;;;26.50;97.90;;;;;;1872986;77;20148;-82
2021/06/12 11:05:03;;;;;;;;;;;26.50;98.10;;;;;;1842634;76;20190;-83
2021/06/12 11:07:27;;;;;;;;;;;26.50;98.20;;;;;;1833183;77;20207;-83
2021/06/12 11:09:58;;;;;;;;;;;26.50;98.30;;;;;;1854197;77;20180;-82
2021/06/12 11:12:30;;;;;;;;;;;26.50;98.50;;;;;;1837030;77;20139;-83
2021/06/12 11:15:01;;;;;;;;;;;26.40;98.60;;;;;;1837460;77;20119;-83
2021/06/12 11:17:31;;;;;;;;;;;26.40;98.80;;;;;;1837732;77;20187;-83
2021/06/12 11:20:02;;;;;;;;;;;26.40;98.90;;;;;;1862022;76;20446;-83
2021/06/12 11:22:33;;;;;;;;;;;26.40;99.00;;;;;;1866538;76;20135;-83
2021/06/12 11:25:04;;;;;;;;;;;26.40;99.20;;;;;;1842023;76;20169;-83
2021/06/12 11:27:36;;;;;;;;;;;26.40;99.30;;;;;;1871346;76;20177;-83
2021/06/12 11:30:07;;;;;;;;;;;26.30;99.40;;;;;;1862189;76;20162;-83
2021/06/12 11:32:38;;;;;;;;;;;26.30;99.40;;;;;;1854303;77;20134;-83
2021/06/12 11:35:08;;;;;;;;;;;26.30;99.50;;;;;;1860793;77;20479;-82
2021/06/12 11:37:40;;;;;;;;;;;26.30;99.50;;;;;;1848404;77;20178;-83
2021/06/12 11:40:11;;;;;;;;;;;26.30;99.70;;;;;;1841948;76;20171;-82
2021/06/12 11:42:42;;;;;;;;;;;26.30;99.90;;;;;;1840145;78;20143;-83
2021/06/12 11:45:14;;;;;;;;;;;26.30;99.90;;;;;;1842793;76;20177;-84
2021/06/12 11:47:45;;;;;;;;;;;26.30;99.90;;;;;;1837621;76;20134;-84
2021/06/12 11:50:15;;;;;;;;;;;26.30;99.90;;;;;;1837561;76;20139;-83
2021/06/12 11:52:46;;;;;;;;;;;26.30;99.90;;;;;;1838135;77;20552;-85
2021/06/12 11:55:17;;;;;;;;;;;26.30;99.90;;;;;;1839512;76;20217;-84
2021/06/12 11:57:48;;;;;;;;;;;26.30;99.90;;;;;;1831597;78;20167;-84
2021/06/12 12:00:19;;;;;;;;;;;26.20;99.90;;;;;;1832700;76;20166;-84
2021/06/12 12:02:50;;;;;;;;;;;26.30;99.90;;;;;;1831159;77;20533;-84
2021/06/12 12:05:20;;;;;;;;;;;26.20;99.90;;;;;;1836168;76;20194;-86
2021/06/12 12:07:50;;;;;;;;;;;26.30;99.90;;;;;;1840728;76;20250;-83
2021/06/12 12:10:21;;;;;;;;;;;26.20;99.90;;;;;;1837155;77;20131;-83
2021/06/12 12:12:51;;;;;;;;;;;26.30;99.90;;;;;;1833371;76;20276;-84
2021/06/12 12:15:22;;;;;;;;;;;26.30;99.90;;;;;;1835080;77;20295;-84
2021/06/12 12:17:53;;;;;;;;;;;26.30;99.90;;;;;;1839231;77;20206;-84
2021/06/12 12:20:23;;;;;;;;;;;26.30;99.90;;;;;;1830670;76;20251;-84
2021/06/12 12:22:54;;;;;;;;;;;26.30;99.90;;;;;;1824578;78;20163;-84
2021/06/12 12:25:28;;;;;;;;;;;26.30;99.90;;;;;;1829494;76;20231;-84
2021/06/12 12:28:07;;;;;;;;;;;26.30;99.90;;;;;;1836524;77;20122;-84
2021/06/12 12:30:39;;;;;;;;;;;26.30;99.90;;;;;;1839270;76;20178;-83
2021/06/12 12:33:10;;;;;;;;;;;26.30;99.90;;;;;;1836910;75;20253;-84
2021/06/12 12:35:40;;;;;;;;;;;26.30;99.90;;;;;;1842318;76;20139;-83
2021/06/12 12:38:11;;;;;;;;;;;26.40;99.90;;;;;;1837549;78;20427;-84
2021/06/12 12:40:41;;;;;;;;;;;26.30;99.90;;;;;;1834740;76;20170;-83
2021/06/12 12:43:12;;;;;;;;;;;26.40;99.90;;;;;;1832375;76;20190;-84
2021/06/12 12:45:42;;;;;;;;;;;26.40;99.90;;;;;;1837067;77;20535;-86
2021/06/12 12:48:14;;;;;;;;;;;26.30;99.90;;;;;;1834167;77;20178;-85
2021/06/12 12:50:44;;;;;;;;;;;26.30;99.90;;;;;;1837180;76;20241;-85
2021/06/12 12:53:18;;;;;;;;;;;26.30;99.90;;;;;;1840201;76;20186;-83
2021/06/12 12:55:46;;;;;;;;;;;26.30;99.90;;;;;;1839643;76;20194;-83
2021/06/12 12:58:17;;;;;;;;;;;26.30;99.90;;;;;;1838926;77;20248;-83
2021/06/12 13:00:47;;;;;;;;;;;26.30;99.90;;;;;;1838419;76;20122;-84
2021/06/12 13:03:17;;;;;;;;;;;26.30;99.90;;;;;;1835216;76;20178;-85
2021/06/12 13:05:46;;;;;;;;;;;26.40;99.90;;;;;;1837872;76;20214;-85
2021/06/12 13:08:17;;;;;;;;;;;26.40;99.90;;;;;;1837099;76;20166;-84
2021/06/12 13:10:47;;;;;;;;;;;26.40;99.90;;;;;;1837138;76;20174;-83
2021/06/12 13:13:20;;;;;;;;;;;26.40;99.90;;;;;;1828964;77;20128;-85
2021/06/12 13:15:54;;;;;;;;;;;26.40;99.90;;;;;;1803459;78;20184;-85
2021/06/12 13:18:25;;;;;;;;;;;26.40;99.90;;;;;;1835258;76;20209;-82
2021/06/12 13:20:59;;;;;;;;;;;26.40;99.90;;;;;;1850444;76;20186;-85
2021/06/12 13:23:29;;;;;;;;;;;26.30;99.90;;;;;;1845449;76;20301;-84
2021/06/12 13:26:04;;;;;;;;;;;26.30;99.90;;;;;;1782735;79;20269;-84
2021/06/12 13:28:36;;;;;;;;;;;26.30;99.90;;;;;;1832334;77;20177;-85
2021/06/12 13:31:08;;;;;;;;;;;26.30;99.90;;;;;;1838703;76;20687;-84
2021/06/12 13:33:46;;;;;;;;;;;26.20;99.90;;;;;;1834812;78;20449;-85
2021/06/12 13:36:21;;;;;;;;;;;26.20;99.90;;;;;;1835696;76;20201;-85
2021/06/12 13:38:54;;;;;;;;;;;26.20;99.90;;;;;;1856615;76;20643;-86
2021/06/12 13:41:32;;;;;;;;;;;26.20;99.90;;;;;;1859613;76;20182;-82
2021/06/12 13:44:03;;;;;;;;;;;26.10;99.90;;;;;;1855494;76;20213;-83
2021/06/12 13:46:34;;;;;;;;;;;26.10;99.90;;;;;;1838077;76;20242;-89
2021/06/12 13:49:04;;;;;;;;;;;26.10;99.90;;;;;;1844050;76;20246;-89
2021/06/12 13:51:37;;;;;;;;;;;26.10;99.90;;;;;;1849927;76;20222;-90
2021/06/12 13:54:07;;;;;;;;;;;26.10;99.90;;;;;;1832433;77;20180;-91
2021/06/12 13:56:38;;;;;;;;;;;26.10;99.90;;;;;;1811563;77;20186;-90
2021/06/12 13:59:07;;;;;;;;;;;26.10;99.90;;;;;;1822554;77;20135;-91
2021/06/12 14:01:42;;;;;;;;;;;26.10;99.90;;;;;;1803623;78;20125;-90
2021/06/12 14:04:08;;;;;;;;;;;26.10;99.90;;;;;;1812964;77;20200;-89
2021/06/12 14:06:38;;;;;;;;;;;26.10;99.90;;;;;;1818878;77;20166;-89
2021/06/12 14:09:08;;;;;;;;;;;26.10;99.90;;;;;;1819604;77;20300;-89
2021/06/12 14:11:40;;;;;;;;;;;26.00;99.90;;;;;;1819215;77;20490;-88
2021/06/12 14:14:11;;;;;;;;;;;26.00;99.90;;;;;;1774578;79;20203;-89
2021/06/12 14:16:43;;;;;;;;;;;26.00;99.90;;;;;;1810339;77;20200;-91
2021/06/12 14:19:13;;;;;;;;;;;25.90;99.90;;;;;;1772965;80;20175;-89
2021/06/12 14:21:43;;;;;;;;;;;25.90;99.90;;;;;;1806223;77;20175;-90
2021/06/12 14:24:15;;;;;;;;;;;25.80;99.90;;;;;;1773997;79;20219;-89
2021/06/12 14:26:46;;;;;;;;;;;25.80;99.90;;;;;;1804982;77;20189;-90
2021/06/12 14:29:16;;;;;;;;;;;25.80;99.90;;;;;;1813312;77;20199;-90
2021/06/12 14:31:46;;;;;;;;;;;25.80;99.90;;;;;;1817395;77;20427;-92
2021/06/12 14:34:16;;;;;;;;;;;25.80;99.90;;;;;;1807306;77;20193;-91
2021/06/12 14:36:46;;;;;;;;;;;25.70;99.90;;;;;;1807203;77;20208;-90